ADDS METAR Data INFO
IDs: Format: Raw Decoded Include TAF

Data at: 0056 UTC 21 Oct 2017

KBKT 210035Z AUTO 00000KT 10SM CLR 16/12 A3023 RMK AO1 T01550120
KBKT 210015Z AUTO 00000KT 10SM CLR 16/12 A3022 RMK AO1 T01580116
KBKT 202355Z AUTO 00000KT 10SM CLR 16/11 A3022 RMK AO1 T01630114 10252 20163
KBKT 202335Z AUTO 00000KT 10SM CLR 17/12 A3021 RMK AO1 T01700119
KBKT 202315Z AUTO 00000KT 10SM CLR 17/11 A3020 RMK AO1 T01710113
KBKT 202255Z AUTO 27006KT 10SM CLR 18/12 A3020 RMK AO1 T01790116
KBKT 202235Z AUTO 28005KT 10SM CLR 18/11 A3020 RMK AO1 T01830111
KBKT 202215Z AUTO 00000KT 10SM CLR 21/11 A3020 RMK AO1 T02060114
KBKT 202155Z AUTO 00000KT 10SM CLR 22/12 A3019 RMK AO1 T02240116
KBKT 202135Z AUTO 06003KT 10SM CLR 24/11 A3019 RMK AO1 T02360105
KBKT 202115Z AUTO 02003KT 10SM CLR 24/09 A3019 RMK AO1 T02430093
KBKT 202055Z AUTO 06004KT 10SM CLR 25/09 A3019 RMK AO1 T02460089
KBKT 202035Z AUTO 01003KT 10SM CLR 25/09 A3020 RMK AO1 T02490090
KBKT 202015Z AUTO 05003KT 10SM CLR 25/09 A3020 RMK AO1 T02480089
KBKT 201955Z AUTO 02004KT 10SM CLR 25/09 A3020 RMK AO1 T02480088
KBKT 201935Z AUTO 02005KT 10SM CLR 25/09 A3020 RMK AO1 T02520092
KBKT 201915Z AUTO 35003KT 10SM CLR 25/09 A3020 RMK AO1 T02510094
KBKT 201855Z AUTO 34004KT 10SM CLR 25/09 A3021 RMK AO1 T02460089
KBKT 201835Z AUTO 04005KT 10SM CLR 25/10 A3021 RMK AO1 T02470095
KBKT 201815Z AUTO 02005KT 10SM CLR 25/09 A3022 RMK AO1 T02470093
KBKT 201755Z AUTO 00000KT 10SM CLR 25/09 A3023 RMK AO1 T02450092 10250 20106
KBKT 201735Z AUTO 05007KT 10SM CLR 25/10 A3024 RMK AO1 T02490098
KBKT 201715Z AUTO 02005KT 10SM CLR 24/10 A3025 RMK AO1 T02420097
KBKT 201655Z AUTO 07005KT 10SM CLR 24/09 A3025 RMK AO1 T02370094
KBKT 201635Z AUTO 02005KT 10SM CLR 23/09 A3026 RMK AO1 T02320092
KBKT 201615Z AUTO 04006KT 10SM CLR 23/09 A3027 RMK AO1 T02300094
KBKT 201555Z AUTO 02005KT 10SM CLR 22/09 A3028 RMK AO1 T02220086
KBKT 201535Z AUTO 03004KT 10SM CLR 22/08 A3028 RMK AO1 T02200080
KBKT 201515Z AUTO 02005KT 10SM CLR 22/07 A3028 RMK AO1 T02150074
KBKT 201455Z AUTO 35004KT 10SM CLR 21/08 A3028 RMK AO1 T02080076
KBKT 201435Z AUTO 36004KT 10SM CLR 20/08 A3028 RMK AO1 T02030083
KBKT 201415Z AUTO 32004KT 10SM CLR 19/08 A3028 RMK AO1 T01940081
KBKT 201355Z AUTO 32005KT 10SM CLR 18/08 A3027 RMK AO1 T01830079
KBKT 201335Z AUTO 35003KT 10SM CLR 17/08 A3027 RMK AO1 T01740079
KBKT 201315Z AUTO 35003KT 10SM CLR 17/07 A3027 RMK AO1 T01660074
KBKT 201255Z AUTO 00000KT 10SM CLR 16/08 A3026 RMK AO1 T01560078
KBKT 201235Z AUTO 00000KT 10SM CLR 13/10 A3025 RMK AO1 T01290103
KBKT 201215Z AUTO 00000KT 10SM CLR 12/07 A3024 RMK AO1 T01240074
KBKT 201155Z AUTO 00000KT 10SM CLR 10/07 A3024 RMK AO1 T01040073 10125 20072
KBKT 201135Z AUTO 00000KT 10SM CLR 10/07 A3023 RMK AO1 T00970071
KBKT 201115Z AUTO 34004KT 10SM CLR 12/07 A3023 RMK AO1 T01220070
KBKT 201055Z AUTO 33006KT 10SM CLR 12/08 A3022 RMK AO1 T01240075
KBKT 201035Z AUTO 34007KT 10SM CLR 13/08 A3022 RMK AO1 T01250077
KBKT 201015Z AUTO 33007KT 10SM CLR 11/08 A3021 RMK AO1 T01100083
KBKT 200955Z AUTO 33003KT 10SM CLR 08/08 A3020 RMK AO1 T00780078
KBKT 200935Z AUTO 30004KT 10SM CLR 07/07 A3020 RMK AO1 T00730073
KBKT 200915Z AUTO 29004KT 10SM CLR 08/08 A3019 RMK AO1 T00810078
KBKT 200855Z AUTO 28006KT 10SM CLR 09/09 A3019 RMK AO1 T00850085
KBKT 200835Z AUTO 00000KT 10SM CLR 08/08 A3018 RMK AO1 T00770077
KBKT 200815Z AUTO 00000KT 10SM CLR 09/09 A3018 RMK AO1 T00920090
KBKT 200755Z AUTO 00000KT 10SM CLR 09/09 A3018 RMK AO1 T00870087
KBKT 200735Z AUTO 00000KT 10SM CLR 10/08 A3018 RMK AO1 T00960082
KBKT 200715Z AUTO 27004KT 10SM CLR 09/09 A3018 RMK AO1 T00890085
KBKT 200655Z AUTO 00000KT 10SM CLR 09/09 A3018 RMK AO1 T00850085
KBKT 200635Z AUTO 00000KT 10SM CLR 08/08 A3018 RMK AO1 T00800080
KBKT 200615Z AUTO 00000KT 10SM CLR 08/08 A3018 RMK AO1 T00810081
KBKT 200555Z AUTO 00000KT 10SM CLR 08/08 A3018 RMK AO1 T00820082 10124 20080
KBKT 200535Z AUTO 24003KT 10SM CLR 08/08 A3019 RMK AO1 T00800080
KBKT 200515Z AUTO 24003KT 10SM CLR 09/08 A3019 RMK AO1 T00910080
KBKT 200455Z AUTO 00000KT 10SM CLR 09/09 A3019 RMK AO1 T00860086 402380039
KBKT 200435Z AUTO 25003KT 10SM CLR 09/09 A3019 RMK AO1 T00860086
KBKT 200415Z AUTO 25003KT 10SM CLR 09/09 A3019 RMK AO1 T00880088
KBKT 200355Z AUTO 00000KT 10SM CLR 09/09 A3019 RMK AO1 T00920091
KBKT 200335Z AUTO 00000KT 10SM CLR 09/09 A3020 RMK AO1 T00930086
KBKT 200315Z AUTO 00000KT 10SM CLR 09/08 A3020 RMK AO1 T00930084
KBKT 200255Z AUTO 00000KT 10SM CLR 10/08 A3020 RMK AO1 T01000075
KBKT 200235Z AUTO 00000KT 10SM CLR 10/08 A3020 RMK AO1 T01010077
KBKT 200215Z AUTO 21008KT 10SM CLR 10/08 A3020 RMK AO1 T01030083
KBKT 200155Z AUTO 21005KT 10SM CLR 11/08 A3020 RMK AO1 T01050082
KBKT 200135Z AUTO 21003KT 10SM CLR 11/08 A3020 RMK AO1 T01130076
KBKT 200115Z AUTO 00000KT 10SM CLR 12/09 A3020 RMK AO1 T01170088
KBKT 200055Z AUTO 00000KT 10SM CLR 11/07 A3019 RMK AO1 T01140071
KBKT 200035Z AUTO 00000KT 10SM CLR 12/08 A3019 RMK AO1 T01180079
KBKT 200015Z AUTO 00000KT 10SM CLR 12/08 A3019 RMK AO1 T01180075
KBKT 192355Z AUTO 00000KT 10SM CLR 13/07 A3019 RMK AO1 T01290073 10238 20129
KBKT 192335Z AUTO 00000KT 10SM CLR 14/07 A3019 RMK AO1 T01380072
KBKT 192315Z AUTO 00000KT 10SM CLR 14/07 A3018 RMK AO1 T01420069
KBKT 192255Z AUTO 00000KT 10SM CLR 16/06 A3018 RMK AO1 T01590064
KBKT 192235Z AUTO 00000KT 10SM CLR 17/06 A3018 RMK AO1 T01680062
KBKT 192215Z AUTO 00000KT 10SM CLR 19/06 A3018 RMK AO1 T01920060
KBKT 192155Z AUTO 22003KT 10SM CLR 21/05 A3018 RMK AO1 T02110048
KBKT 192135Z AUTO 23004KT 10SM CLR 22/03 A3018 RMK AO1 T02240033
KBKT 192115Z AUTO 22006KT 10SM CLR 23/03 A3019 RMK AO1 T02300030
KBKT 192055Z AUTO 23005KT 10SM CLR 23/02 A3019 RMK AO1 T02330023
KBKT 192035Z AUTO 26005KT 10SM CLR 24/02 A3019 RMK AO1 T02350021
KBKT 192015Z AUTO 25006KT 10SM CLR 24/03 A3020 RMK AO1 T02350027
KBKT 191955Z AUTO 27006KT 10SM CLR 24/03 A3021 RMK AO1 T02370029
KBKT 191935Z AUTO 25005KT 10SM CLR 23/03 A3021 RMK AO1 T02340028
KBKT 191915Z AUTO 26004KT 10SM CLR 24/05 A3021 RMK AO1 T02360045
KBKT 191855Z AUTO 23006KT 10SM CLR 23/04 A3022 RMK AO1 T02310043
KBKT 191835Z AUTO 24007KT 10SM CLR 23/04 A3022 RMK AO1 T02290044
KBKT 191815Z AUTO 22006KT 10SM CLR 23/05 A3023 RMK AO1 T02250048
KBKT 191755Z AUTO 24007KT 10SM CLR 22/04 A3023 RMK AO1 T02200044 10223 20047
KBKT 191735Z AUTO 22005KT 10SM CLR 22/05 A3025 RMK AO1 T02150045
KBKT 191715Z AUTO 20005KT 10SM CLR 21/05 A3025 RMK AO1 T02140045
KBKT 191655Z AUTO 19007KT 10SM CLR 21/06 A3027 RMK AO1 T02090062
KBKT 191635Z AUTO 22007KT 10SM CLR 20/07 A3027 RMK AO1 T02030071
KBKT 191615Z AUTO 23003G14KT 10SM CLR 20/07 A3029 RMK AO1 T01970068
KBKT 191555Z AUTO 19007KT 10SM CLR 19/08 A3030 RMK AO1 T01930084
KBKT 191535Z AUTO 22005G14KT 10SM CLR 18/08 A3031 RMK AO1 T01840083
KBKT 191515Z AUTO 22006KT 10SM CLR 18/09 A3031 RMK AO1 T01760085
KBKT 191455Z AUTO 22004KT 10SM CLR 17/09 A3031 RMK AO1 T01680089
KBKT 191435Z AUTO 24005KT 10SM CLR 16/10 A3032 RMK AO1 T01630098
KBKT 191415Z AUTO 24004KT 10SM CLR 15/09 A3032 RMK AO1 T01490094
KBKT 191355Z AUTO 25004KT 10SM CLR 14/10 A3032 RMK AO1 T01390100
KBKT 191335Z AUTO 25003KT 10SM CLR 13/10 A3032 RMK AO1 T01260101
KBKT 191315Z AUTO 00000KT 10SM CLR 11/10 A3032 RMK AO1 T01130103